METAR Data
IDs: Format: Raw Decoded Include TAF

Data at: 2005 UTC 26 Sep 2021

KLSE 261953Z 18006KT 10SM CLR 27/13 A2973 RMK AO2 SLP061 T02720133